Flight Track Log - Related Links

Times and Time Zones

All times are in EDT time to prevent confusion due to time zone crossing. See the KAP444 flight status page for this flight to view local times or setup timezone preferences in your user account.


Time Position Orientation Groundspeed Altitude Reporting Facility
EDT Latitude Longitude Course Direction KTS MPH feet Rate Location/Type
Thu 02:07:32 PM 42.3500 -70.9833 114° Southeast 136 157 500  Level KA90
Thu 02:08:38 PM 42.3333 -70.9333 114° Southeast 130 150 1,600 857 Climbing KA90
Thu 02:09:38 PM 42.3167 -70.8833 114° Southeast 137 158 2,300 700 Climbing KA90
Thu 02:10:38 PM 42.3000 -70.8500 124° Southeast 138 159 3,000 600 Climbing KA90
Thu 02:11:38 PM 42.2667 -70.8333 160° South 136 157 3,500 250 Climbing KA90
Thu 02:12:38 PM 42.2167 -70.8000 154° Southeast 168 193 3,500 50 Level KA90
Thu 02:13:38 PM 42.1833 -70.7667 143° Southeast 168 193 3,600 53 Climbing KA90
Thu 02:14:32 PM 42.1500 -70.7333 143° Southeast 164 189 3,600  Level KA90
Thu 02:16:00 PM 42.1467 -70.6630 94° East  Level FlightAware Approximate
Thu 02:23:00 PM 41.9244 -70.5113 114° Southeast  Level Estimated
Thu 02:24:00 PM 41.9334 -70.4650 75° East  Level FlightAware Approximate
Thu 02:25:00 PM 41.9425 -70.4187 75° East  Level FlightAware Approximate
Thu 02:26:00 PM 41.9515 -70.3724 75° East  Level FlightAware Approximate
Thu 02:27:00 PM 41.9604 -70.3260 75° East  Level FlightAware Approximate
Thu 02:28:00 PM 41.9694 -70.2797 75° East  Level FlightAware Approximate
Thu 02:29:00 PM 41.9783 -70.2333 75° East  Level FlightAware Approximate
Thu 02:30:00 PM 41.9433 -70.2249 180° South  Level Estimated
Thu 02:31:00 PM 41.9104 -70.2064 157° South  Level FlightAware Approximate
Thu 02:32:00 PM 41.8776 -70.1880 157° South  Level FlightAware Approximate
Thu 02:33:00 PM 41.8447 -70.1696 157° South  Level FlightAware Approximate
Thu 02:34:00 PM 41.8118 -70.1513 157° South  Level FlightAware Approximate
Thu 02:35:00 PM 41.7790 -70.1329 157° South  Level FlightAware Approximate
Thu 02:36:00 PM 41.7461 -70.1146 157° South  Level FlightAware Approximate
Thu 02:37:00 PM 41.7132 -70.0962 157° South  Level FlightAware Approximate
Thu 02:38:00 PM 41.6803 -70.0779 157° South  Level FlightAware Approximate
Thu 02:39:00 PM 41.6474 -70.0597 157° South  Level FlightAware Approximate
Thu 02:40:00 PM 41.6145 -70.0414 157° South  Level FlightAware Approximate
Thu 02:41:00 PM 41.5996 -70.0334 189° South  Level FlightAware Approximate
Thu 02:42:00 PM 41.5644 -70.0405 189° South  Level FlightAware Approximate
Thu 02:43:00 PM 41.5292 -70.0475 189° South  Level FlightAware Approximate
Thu 02:44:00 PM 41.4937 -70.0500 180° South  Level FlightAware Approximate
Thu 02:45:00 PM 41.4581 -70.0500 180° South  Level FlightAware Approximate
Thu 02:46:00 PM 41.4225 -70.0500 180° South  Level FlightAware Approximate
Thu 02:47:00 PM 41.3869 -70.0500 180° South  Level FlightAware Approximate
Thu 02:48:00 PM 41.3513 -70.0500 180° South  Level FlightAware Approximate
Thu 02:49:00 PM 41.3157 -70.0500 180° South  Level FlightAware Approximate
Thu 02:50:00 PM 41.2801 -70.0500 180° South  Level FlightAware Approximate
Thu 02:51:00 PM 41.2500 -70.0500 180° South  Level FlightAware Approximate
Thu 02:52:00 PM 41.2531 -70.0603 180° South  Level Estimated
Thu 02:53:00 PM 41.2531 -70.0603 180° South  Level Estimated
Thu 02:54:00 PM 41.2531 -70.0603 180° South  Level Estimated
Thu 02:55:00 PM 41.2531 -70.0603 180° South  Level Estimated
Thu 02:56:00 PM 41.2531 -70.0603 180° South  Level Estimated
Thu 02:57:00 PM 41.2531 -70.0603 180° South  Level Estimated
Thu 02:58:00 PM 41.2531 -70.0603 180° South  Level Estimated
Thu 02:59:00 PM 41.2531 -70.0603 180° South  Level Estimated
Thu 03:00:00 PM 41.2531 -70.0603 180° South  Level Estimated
Thu 03:01:00 PM 41.2531 -70.0603 180° South  Level Estimated
Thu 03:02:00 PM 41.2531 -70.0603 180° South  Level Estimated
Thu 03:03:00 PM 41.2531 -70.0603 180° South  Level Estimated
Thu 03:04:00 PM 41.2531 -70.0603 180° South  Level Estimated
Thu 03:05:00 PM 41.2531 -70.0603 180° South  Level Estimated
Thu 03:06:00 PM 41.2531 -70.0603 180° South  Level Estimated
Thu 03:07:00 PM 41.2531 -70.0603 180° South  Level Estimated

Login

Don't have an account? Register now (free) for customized features, flight alerts, and more!